Аэропорт: Нахичевань. Нахичевань

ICAO: UBBN

METAR:
2018/05/20 19:30
UBBN 201930Z 08008KT 9999 FEW050 SCT100 17/11 Q1017 R14R/CLRD// NOSIG RMK MT OP QFE688
METAR:
2018/05/20 18:00
TAF UBBN 201700Z 2018/2118 15010KT 9999 SCT050CB BKN100 TX26/2112Z TN12/2103Z 
      TEMPO 2020/2106 06010KT -SHRA SCT043CB OVC090